Meridien — FT2092 — position and weather

sailwx.info

Track history (hours):
 
Tides and Currents Weather Stations Pressure Air Temp Water Temp Dewpoint Dewpoint Depression Visibility Wind Speed Wind Dir Waves Ship Positions

Meridien

Last reported at 2016-Feb-05 13:33 UTC. Time now 2016-Feb-09 15:55 UTC.
Position N 43°18' E 004°55'.

Length 21 m.

MMSI: 227321780.

Date/timePositionNaut miles runAvg speedWind from/ knotsBaromVisibWave heightAir tempDewpointWater temp
2016-Feb-05 13:33N 43°18' E 004°55'7 0.2
2016-Feb-03 16:33N 43°24' E 004°60'0 0.0
2016-Feb-03 15:34N 43°24' E 004°60'5 1.8
2016-Feb-03 12:32N 43°19' E 004°56'3 2.6
2016-Feb-03 11:33N 43°17' E 004°55'1 1.4
2016-Feb-03 10:33N 43°16' E 004°54'4 4.0
2016-Feb-03 09:33N 43°16' E 004°48'2 2.4
2016-Feb-03 08:33N 43°18' E 004°51'10 0.5
2016-Feb-02 09:33N 43°08' E 004°56'3 3.4
2016-Feb-02 08:33N 43°11' E 004°56'13 0.8
2016-Feb-01 16:33N 43°24' E 004°59'0 0.0
2016-Feb-01 15:34N 43°24' E 004°59'6 1.2
2016-Feb-01 10:23N 43°18' E 004°56'3 3.9
2016-Feb-01 09:33N 43°18' E 004°52'3 3.3
2016-Feb-01 08:33N 43°16' E 004°48'3 3.2
2016-Feb-01 07:33N 43°18' E 004°51'  
2016-Jan-28 02:18N 43°24' E 004°59'6 0.5
2016-Jan-27 14:33N 43°19' E 004°53'1 1.1
2016-Jan-27 13:33N 43°19' E 004°52'5 2.4
2016-Jan-27 11:25N 43°19' E 004°59'3 4.0
2016-Jan-27 10:33N 43°18' E 004°54'2 2.3
2016-Jan-27 09:33N 43°18' E 004°51'  
Track history (hours):
 
Tides and Currents Weather Stations Pressure Air Temp Water Temp Dewpoint Dewpoint Depression Visibility Wind Speed Wind Dir Waves Ship Positions

Meridien

Last reported at 2016-Feb-05 13:33 UTC. Time now 2016-Feb-09 15:55 UTC.
Position N 43°18' E 004°55'.

Length 21 m.

MMSI: 227321780.

Date/timePositionNaut miles runAvg speedWind from/ knotsBaromVisibWave heightAir tempDewpointWater temp
2016-Feb-05 13:33N 43°18' E 004°55'7 0.2
2016-Feb-03 16:33N 43°24' E 004°60'0 0.0
2016-Feb-03 15:34N 43°24' E 004°60'5 1.8
2016-Feb-03 12:32N 43°19' E 004°56'3 2.6
2016-Feb-03 11:33N 43°17' E 004°55'1 1.4
2016-Feb-03 10:33N 43°16' E 004°54'4 4.0
2016-Feb-03 09:33N 43°16' E 004°48'2 2.4
2016-Feb-03 08:33N 43°18' E 004°51'10 0.5
2016-Feb-02 09:33N 43°08' E 004°56'3 3.4
2016-Feb-02 08:33N 43°11' E 004°56'13 0.8
2016-Feb-01 16:33N 43°24' E 004°59'0 0.0
2016-Feb-01 15:34N 43°24' E 004°59'6 1.2
2016-Feb-01 10:23N 43°18' E 004°56'3 3.9
2016-Feb-01 09:33N 43°18' E 004°52'3 3.3
2016-Feb-01 08:33N 43°16' E 004°48'3 3.2
2016-Feb-01 07:33N 43°18' E 004°51'  
2016-Jan-28 02:18N 43°24' E 004°59'6 0.5
2016-Jan-27 14:33N 43°19' E 004°53'1 1.1
2016-Jan-27 13:33N 43°19' E 004°52'5 2.4
2016-Jan-27 11:25N 43°19' E 004°59'3 4.0
2016-Jan-27 10:33N 43°18' E 004°54'2 2.3
2016-Jan-27 09:33N 43°18' E 004°51'  

Dump ship's entire track history